Time;durP1;ratioP1;P1;durP2;ratioP2;P2;SDS_P1;SDS_P2;PMS_P1;PMS_P2;Temp;Humidity;BMP_temperature;BMP_pressure;BME280_temperature;BME280_humidity;BME280_pressure;Samples;Min_cycle;Max_cycle;Signal;HPM_P1;HPM_P2
2022/03/26 00:00:09;;;;;;;30.47;24.90;;;12.00;33.00;;;;;;5116000;28;20426;-45
2022/03/26 00:02:35;;;;;;;34.03;26.80;;;11.90;33.10;;;;;;5117776;28;20414;-45
2022/03/26 00:05:01;;;;;;;32.20;25.17;;;11.90;33.30;;;;;;5114852;28;20517;-48
2022/03/26 00:07:26;;;;;;;37.70;28.00;;;11.80;33.30;;;;;;5116211;28;20418;-45
2022/03/26 00:09:52;;;;;;;30.07;25.53;;;11.80;33.40;;;;;;5115318;28;20198;-46
2022/03/26 00:12:18;;;;;;;31.77;25.63;;;11.80;33.50;;;;;;5121259;28;20285;-46
2022/03/26 00:14:44;;;;;;;32.57;26.10;;;11.70;33.60;;;;;;5120305;28;20576;-46
2022/03/26 00:17:10;;;;;;;35.90;27.23;;;11.70;33.90;;;;;;5121512;28;20183;-45
2022/03/26 00:19:35;;;;;;;33.30;26.93;;;11.70;34.10;;;;;;5119106;28;20196;-45
2022/03/26 00:22:02;;;;;;;34.07;28.70;;;11.60;34.20;;;;;;5120301;28;20549;-45
2022/03/26 00:24:28;;;;;;;33.20;27.33;;;11.60;34.40;;;;;;5117822;28;20237;-46
2022/03/26 00:26:53;;;;;;;29.80;25.10;;;11.50;34.50;;;;;;5120242;28;20429;-46
2022/03/26 00:29:19;;;;;;;31.33;26.20;;;11.40;34.70;;;;;;5116904;28;20176;-46
2022/03/26 00:31:45;;;;;;;34.10;27.60;;;11.30;34.70;;;;;;5119821;28;20186;-46
2022/03/26 00:34:11;;;;;;;33.70;26.90;;;11.30;34.90;;;;;;5119518;28;20478;-46
2022/03/26 00:36:38;;;;;;;32.20;26.57;;;11.20;35.00;;;;;;5117569;28;20475;-45
2022/03/26 00:39:03;;;;;;;30.60;25.80;;;11.10;35.00;;;;;;5119159;28;20172;-45
2022/03/26 00:41:29;;;;;;;30.60;26.40;;;11.10;35.20;;;;;;5118081;28;20437;-45
2022/03/26 00:43:56;;;;;;;33.37;27.17;;;11.00;35.30;;;;;;5102977;28;20230;-45
2022/03/26 00:46:22;;;;;;;33.43;28.00;;;11.00;35.40;;;;;;5099436;28;20216;-45
2022/03/26 00:48:48;;;;;;;32.23;26.47;;;10.90;35.50;;;;;;5099779;28;20475;-45
2022/03/26 00:51:16;;;;;;;34.67;29.13;;;10.90;35.60;;;;;;5099006;28;20434;-46
2022/03/26 00:53:43;;;;;;;34.17;27.57;;;10.80;35.70;;;;;;5100721;28;20526;-45
2022/03/26 00:56:09;;;;;;;34.00;27.77;;;10.70;35.70;;;;;;5097926;28;20444;-45
2022/03/26 00:58:34;;;;;;;33.90;26.90;;;10.70;35.80;;;;;;5100472;28;20419;-45
2022/03/26 01:01:00;;;;;;;36.60;29.20;;;10.70;35.90;;;;;;5099495;28;20181;-46
2022/03/26 01:03:26;;;;;;;36.50;28.70;;;10.60;36.00;;;;;;5100402;28;20252;-45
2022/03/26 01:05:52;;;;;;;35.40;27.70;;;10.60;36.10;;;;;;5099396;28;20185;-45
2022/03/26 01:08:17;;;;;;;35.07;26.90;;;10.50;36.20;;;;;;5098202;28;20196;-45
2022/03/26 01:10:44;;;;;;;34.17;27.30;;;10.50;36.20;;;;;;5097833;28;20431;-45
2022/03/26 01:13:11;;;;;;;35.33;26.77;;;10.40;36.10;;;;;;5099053;28;20527;-45
2022/03/26 01:15:37;;;;;;;33.60;26.80;;;10.40;36.50;;;;;;5098383;28;20430;-45
2022/03/26 01:18:03;;;;;;;31.13;25.60;;;10.30;36.10;;;;;;5098582;28;20414;-45
2022/03/26 01:20:29;;;;;;;36.33;29.50;;;10.30;36.10;;;;;;5098148;28;20457;-45
2022/03/26 01:22:55;;;;;;;33.90;27.50;;;10.20;36.10;;;;;;5098785;28;20236;-45
2022/03/26 01:25:21;;;;;;;36.00;27.40;;;10.20;36.20;;;;;;5098933;28;20538;-46
2022/03/26 01:27:46;;;;;;;37.53;28.43;;;10.10;36.30;;;;;;5100752;28;20498;-45
2022/03/26 01:30:12;;;;;;;35.57;28.30;;;10.10;36.40;;;;;;5099130;28;20514;-45
2022/03/26 01:32:38;;;;;;;35.47;29.47;;;10.10;36.60;;;;;;5099363;28;20263;-46
2022/03/26 01:35:04;;;;;;;34.30;29.47;;;10.00;36.60;;;;;;5098956;28;20485;-45
2022/03/26 01:37:30;;;;;;;35.30;28.50;;;10.00;36.80;;;;;;5099767;28;20297;-45
2022/03/26 01:39:55;;;;;;;33.00;27.03;;;9.90;37.60;;;;;;5098676;28;20446;-45
2022/03/26 01:42:21;;;;;;;36.73;29.00;;;9.90;37.80;;;;;;5099454;28;20177;-45
2022/03/26 01:44:47;;;;;;;38.20;29.70;;;9.90;37.90;;;;;;5098654;28;20189;-45
2022/03/26 01:47:12;;;;;;;32.47;25.93;;;9.80;37.90;;;;;;5099027;28;20192;-45
2022/03/26 01:49:38;;;;;;;33.23;27.37;;;9.80;38.10;;;;;;5097321;28;20563;-45
2022/03/26 01:52:07;;;;;;;33.73;27.37;;;9.70;38.10;;;;;;5098717;28;20226;-45
2022/03/26 01:54:33;;;;;;;36.93;29.73;;;9.70;38.20;;;;;;5099868;28;20231;-45
2022/03/26 01:56:59;;;;;;;33.47;27.43;;;9.70;38.30;;;;;;5097500;28;20537;-46
2022/03/26 01:59:26;;;;;;;34.33;27.93;;;9.60;38.30;;;;;;5098416;28;20977;-45
2022/03/26 02:01:52;;;;;;;33.10;28.20;;;9.60;38.40;;;;;;5095339;28;20192;-46
2022/03/26 02:04:17;;;;;;;36.80;28.20;;;9.60;38.50;;;;;;5097589;28;20419;-45
2022/03/26 02:07:36;;;;;;;32.60;27.27;;;9.50;38.50;;;;;;5099204;28;20177;-46
2022/03/26 02:10:01;;;;;;;36.73;29.37;;;9.40;38.50;;;;;;5096268;28;20181;-45
2022/03/26 02:12:28;;;;;;;33.07;27.50;;;9.40;38.60;;;;;;5094436;28;20627;-45
2022/03/26 02:14:55;;;;;;;34.63;27.10;;;9.40;38.60;;;;;;5094326;28;20217;-45
2022/03/26 02:17:21;;;;;;;36.83;28.60;;;9.30;38.70;;;;;;5079070;28;20449;-46
2022/03/26 02:20:08;;;;;;;36.10;28.90;;;9.30;38.80;;;;;;5094909;28;20434;-45
2022/03/26 02:22:33;;;;;;;35.70;28.20;;;9.30;38.90;;;;;;5096176;28;20428;-45
2022/03/26 02:24:59;;;;;;;38.80;30.60;;;9.20;39.00;;;;;;5094786;28;20431;-45
2022/03/26 02:27:29;;;;;;;35.17;29.50;;;9.20;39.10;;;;;;5097296;28;20700;-46
2022/03/26 02:29:55;;;;;;;34.73;28.40;;;9.20;39.20;;;;;;5097625;28;20184;-45
2022/03/26 02:32:21;;;;;;;35.43;28.93;;;9.10;39.30;;;;;;5098113;28;20894;-45
2022/03/26 02:34:47;;;;;;;32.37;27.63;;;9.10;39.40;;;;;;5096897;28;20518;-45
2022/03/26 02:37:13;;;;;;;34.60;26.83;;;9.00;39.40;;;;;;5098353;28;20700;-45
2022/03/26 02:39:38;;;;;;;34.10;27.60;;;9.00;39.50;;;;;;5096965;28;20431;-45
2022/03/26 02:42:05;;;;;;;32.00;26.80;;;9.00;39.60;;;;;;5097274;28;20168;-45
2022/03/26 02:44:30;;;;;;;32.83;28.03;;;9.00;39.70;;;;;;5096457;28;20208;-45
2022/03/26 02:46:56;;;;;;;33.17;27.53;;;8.90;39.70;;;;;;5098522;28;20411;-45
2022/03/26 02:49:21;;;;;;;38.17;29.87;;;8.90;39.80;;;;;;5097184;28;20455;-45
2022/03/26 02:51:47;;;;;;;38.57;26.83;;;8.80;39.80;;;;;;5096501;28;20241;-45
2022/03/26 02:54:19;;;;;;;33.27;27.47;;;8.80;39.80;;;;;;5097716;28;20210;-45
2022/03/26 02:56:47;;;;;;;34.10;26.97;;;8.80;39.90;;;;;;5096483;28;20195;-46
2022/03/26 02:59:13;;;;;;;34.73;28.47;;;8.70;39.90;;;;;;5097818;28;20760;-45
2022/03/26 03:01:39;;;;;;;36.47;28.50;;;8.70;40.00;;;;;;5097470;28;20427;-45
2022/03/26 03:04:05;;;;;;;35.00;28.97;;;8.60;40.00;;;;;;5096677;28;20238;-45
2022/03/26 03:06:31;;;;;;;35.43;29.00;;;8.60;40.10;;;;;;5095678;28;20185;-45
2022/03/26 03:08:57;;;;;;;37.80;30.63;;;8.60;40.20;;;;;;5097984;28;20518;-45
2022/03/26 03:11:23;;;;;;;40.43;30.80;;;8.60;40.30;;;;;;5096961;28;20452;-45
2022/03/26 03:13:48;;;;;;;35.47;28.50;;;8.50;40.30;;;;;;5097772;28;20226;-45
2022/03/26 03:16:14;;;;;;;37.53;31.33;;;8.50;40.30;;;;;;5096431;28;20436;-45
2022/03/26 03:18:40;;;;;;;37.60;29.47;;;8.40;40.30;;;;;;5097746;28;20180;-45
2022/03/26 03:21:06;;;;;;;33.87;27.80;;;8.50;40.50;;;;;;5096016;28;20209;-45
2022/03/26 03:23:32;;;;;;;34.30;28.60;;;8.40;40.40;;;;;;5097999;28;20473;-45
2022/03/26 03:25:57;;;;;;;38.30;28.60;;;8.40;40.50;;;;;;5095792;28;20466;-46
2022/03/26 03:28:23;;;;;;;34.17;28.07;;;8.40;40.60;;;;;;5096800;28;20263;-45
2022/03/26 03:30:49;;;;;;;35.90;28.57;;;8.30;40.60;;;;;;5096280;28;20438;-45
2022/03/26 03:33:14;;;;;;;35.43;28.83;;;8.30;40.70;;;;;;5096717;28;20226;-45
2022/03/26 03:35:40;;;;;;;34.97;27.90;;;8.30;40.70;;;;;;5096165;28;20308;-46
2022/03/26 03:38:06;;;;;;;32.30;26.50;;;8.20;40.70;;;;;;5097262;28;20176;-45
2022/03/26 03:40:31;;;;;;;34.70;27.90;;;8.20;40.80;;;;;;5095073;28;20176;-45
2022/03/26 03:42:57;;;;;;;35.70;30.13;;;8.20;40.90;;;;;;5096435;28;20245;-45
2022/03/26 03:45:23;;;;;;;36.53;29.00;;;8.10;40.90;;;;;;5094998;28;20177;-46
2022/03/26 03:47:48;;;;;;;36.67;29.17;;;8.10;41.00;;;;;;5097137;28;20566;-45
2022/03/26 03:50:15;;;;;;;38.27;29.60;;;8.10;41.00;;;;;;5095322;28;20485;-45
2022/03/26 03:52:41;;;;;;;36.43;27.57;;;8.00;41.00;;;;;;5097028;28;20294;-45
2022/03/26 03:55:07;;;;;;;40.50;29.13;;;8.00;41.10;;;;;;5097119;28;20462;-45
2022/03/26 03:57:33;;;;;;;33.70;29.07;;;8.00;41.10;;;;;;5095295;28;20185;-45
2022/03/26 03:59:58;;;;;;;39.47;30.73;;;8.00;41.20;;;;;;5096795;28;20419;-45
2022/03/26 04:02:24;;;;;;;37.40;28.77;;;7.90;41.20;;;;;;5093413;28;20573;-45
2022/03/26 04:04:50;;;;;;;37.87;29.90;;;7.90;41.20;;;;;;5095800;28;20563;-45
2022/03/26 04:07:15;;;;;;;37.17;29.70;;;7.90;41.30;;;;;;5094801;28;20466;-45
2022/03/26 04:09:41;;;;;;;42.13;30.90;;;7.80;41.20;;;;;;5095741;28;20208;-45
2022/03/26 04:12:07;;;;;;;34.57;27.53;;;7.80;41.30;;;;;;5095013;28;20181;-45
2022/03/26 04:14:35;;;;;;;38.10;30.00;;;7.80;41.30;;;;;;5097323;28;20208;-45
2022/03/26 04:17:01;;;;;;;39.37;29.67;;;7.80;41.40;;;;;;5095809;28;20427;-45
2022/03/26 04:19:27;;;;;;;38.67;30.20;;;7.80;41.50;;;;;;5097134;28;20695;-45
2022/03/26 04:21:54;;;;;;;39.83;30.60;;;7.70;41.40;;;;;;5096985;28;20432;-45
2022/03/26 04:24:20;;;;;;;35.93;28.33;;;7.70;41.50;;;;;;5095891;28;20477;-45
2022/03/26 04:26:46;;;;;;;39.63;31.20;;;7.70;42.10;;;;;;5097335;28;20414;-45
2022/03/26 04:29:11;;;;;;;36.97;28.57;;;7.70;41.70;;;;;;5095993;28;20565;-45
2022/03/26 04:31:37;;;;;;;36.57;28.77;;;7.60;41.70;;;;;;5097440;28;20187;-45
2022/03/26 04:34:03;;;;;;;36.83;30.30;;;7.60;41.80;;;;;;5095802;28;20213;-45
2022/03/26 04:36:29;;;;;;;42.17;30.00;;;7.60;41.90;;;;;;5096524;28;20312;-45
2022/03/26 04:38:58;;;;;;;43.27;32.20;;;7.60;42.40;;;;;;5096152;28;20192;-45
2022/03/26 04:41:25;;;;;;;39.30;30.30;;;7.50;42.00;;;;;;5097165;28;20407;-45
2022/03/26 04:43:50;;;;;;;37.37;28.50;;;7.50;42.10;;;;;;5096291;28;20521;-45
2022/03/26 04:46:16;;;;;;;34.23;28.40;;;7.50;42.20;;;;;;5097259;28;20458;-45
2022/03/26 04:48:41;;;;;;;37.93;28.93;;;7.40;42.20;;;;;;5095253;28;20571;-45
2022/03/26 04:51:07;;;;;;;37.23;29.20;;;7.40;42.20;;;;;;5096988;28;20188;-45
2022/03/26 04:53:33;;;;;;;38.00;28.00;;;7.40;42.30;;;;;;5095453;28;20201;-45
2022/03/26 04:55:58;;;;;;;40.27;29.33;;;7.30;42.30;;;;;;5098034;28;20206;-45
2022/03/26 04:58:24;;;;;;;37.87;29.30;;;7.30;42.40;;;;;;5100041;28;20191;-45
2022/03/26 05:00:50;;;;;;;36.23;28.83;;;7.30;42.40;;;;;;5098691;28;20558;-45
2022/03/26 05:03:15;;;;;;;40.80;29.67;;;7.30;42.50;;;;;;5100054;28;20521;-47
2022/03/26 05:05:41;;;;;;;39.27;29.93;;;7.30;42.60;;;;;;5098208;28;20215;-47
2022/03/26 05:08:07;;;;;;;34.73;27.87;;;7.30;42.60;;;;;;5099531;28;20181;-47
2022/03/26 05:10:33;;;;;;;37.00;28.67;;;7.30;42.70;;;;;;5098003;28;20567;-47
2022/03/26 05:12:59;;;;;;;35.03;27.90;;;7.30;42.70;;;;;;5098721;28;20846;-47
2022/03/26 05:15:29;;;;;;;35.73;29.17;;;7.30;42.80;;;;;;5098657;28;20268;-47
2022/03/26 05:17:56;;;;;;;39.63;28.20;;;7.30;42.80;;;;;;5099019;28;20495;-47
2022/03/26 05:20:21;;;;;;;34.80;28.90;;;7.30;42.80;;;;;;5097094;28;20715;-47
2022/03/26 05:22:48;;;;;;;36.03;28.43;;;7.30;42.80;;;;;;5098830;28;20417;-47
2022/03/26 05:25:14;;;;;;;35.43;28.70;;;7.30;42.80;;;;;;5097199;28;20457;-47
2022/03/26 05:27:50;;;;;;;33.73;27.30;;;7.30;42.90;;;;;;5097037;28;20415;-47
2022/03/26 05:30:17;;;;;;;36.77;29.73;;;7.30;42.90;;;;;;5096812;28;20449;-47
2022/03/26 05:32:43;;;;;;;36.00;27.70;;;7.30;43.00;;;;;;5097174;28;20495;-47
2022/03/26 05:35:16;;;;;;;34.63;27.43;;;7.30;43.00;;;;;;5095178;28;20489;-47
2022/03/26 05:37:45;;;;;;;36.93;28.07;;;7.30;43.00;;;;;;5096056;28;20768;-47
2022/03/26 05:40:12;;;;;;;40.00;29.13;;;7.20;43.00;;;;;;5097231;28;20948;-47
2022/03/26 05:42:39;;;;;;;35.57;27.83;;;7.30;43.10;;;;;;5096114;28;20437;-47
2022/03/26 05:45:05;;;;;;;38.77;29.77;;;7.20;43.10;;;;;;5096312;28;20460;-47
2022/03/26 05:47:31;;;;;;;36.10;28.17;;;7.30;43.10;;;;;;5095339;28;20733;-47
2022/03/26 05:49:57;;;;;;;38.87;30.60;;;7.30;43.10;;;;;;5097509;28;20411;-47
2022/03/26 05:52:23;;;;;;;38.47;28.80;;;7.30;43.10;;;;;;5096228;28;20268;-47
2022/03/26 05:54:49;;;;;;;36.07;28.50;;;7.30;43.10;;;;;;5098257;28;20255;-47
2022/03/26 05:57:18;;;;;;;36.90;28.10;;;7.40;43.20;;;;;;5098506;28;20473;-47
2022/03/26 05:59:44;;;;;;;36.43;28.87;;;7.40;43.20;;;;;;5096271;28;20489;-47
2022/03/26 06:02:12;;;;;;;38.37;29.17;;;7.50;43.20;;;;;;5096906;28;20962;-47
2022/03/26 06:04:38;;;;;;;39.80;30.00;;;7.60;43.20;;;;;;5100461;28;20852;-47
2022/03/26 06:07:04;;;;;;;35.33;28.67;;;7.80;43.20;;;;;;5095373;28;20429;-47
2022/03/26 06:09:30;;;;;;;36.93;29.07;;;7.90;43.10;;;;;;5093117;28;20539;-47
2022/03/26 06:11:56;;;;;;;38.10;29.83;;;8.00;43.00;;;;;;5094850;28;20796;-47
2022/03/26 06:14:22;;;;;;;34.77;28.37;;;8.10;43.00;;;;;;5094231;28;20478;-47
2022/03/26 06:16:47;;;;;;;37.33;29.60;;;8.20;42.80;;;;;;5095222;28;20414;-47
2022/03/26 06:19:14;;;;;;;35.30;29.57;;;8.30;42.70;;;;;;5094625;28;20439;-47
2022/03/26 06:21:40;;;;;;;38.20;28.63;;;8.50;42.70;;;;;;5092107;28;20184;-47
2022/03/26 06:24:06;;;;;;;38.20;29.80;;;8.60;42.50;;;;;;5094825;28;20424;-47
2022/03/26 06:26:31;;;;;;;36.40;29.00;;;8.70;42.40;;;;;;5095421;28;20422;-47
2022/03/26 06:28:57;;;;;;;34.30;28.23;;;8.90;42.20;;;;;;5094150;28;20185;-47
2022/03/26 06:31:23;;;;;;;38.17;29.47;;;9.00;42.10;;;;;;5095121;28;20177;-47
2022/03/26 06:33:49;;;;;;;36.30;27.60;;;9.20;41.90;;;;;;5094663;28;20219;-47
2022/03/26 06:36:15;;;;;;;36.17;29.33;;;9.40;41.70;;;;;;5095791;28;20709;-47
2022/03/26 06:38:41;;;;;;;38.70;28.50;;;9.50;41.40;;;;;;5094706;28;20603;-47
2022/03/26 06:41:09;;;;;;;35.47;27.40;;;9.70;41.20;;;;;;5094336;28;20407;-47
2022/03/26 06:43:38;;;;;;;36.47;29.07;;;9.90;41.00;;;;;;5091392;28;20427;-47
2022/03/26 06:46:04;;;;;;;37.77;30.80;;;10.10;40.00;;;;;;5092132;28;20742;-47
2022/03/26 06:48:31;;;;;;;39.53;29.57;;;10.30;39.80;;;;;;5091115;28;20422;-47
2022/03/26 06:50:57;;;;;;;35.63;27.87;;;10.50;39.60;;;;;;5094081;28;20415;-47
2022/03/26 06:53:22;;;;;;;34.17;29.53;;;10.70;39.40;;;;;;5093350;28;20470;-47
2022/03/26 06:55:48;;;;;;;36.70;30.40;;;10.90;39.10;;;;;;5095437;28;20407;-47
2022/03/26 06:58:14;;;;;;;37.50;30.93;;;11.10;38.80;;;;;;5094109;28;20177;-48
2022/03/26 07:00:39;;;;;;;35.57;29.80;;;11.30;38.60;;;;;;5096619;28;20165;-47
2022/03/26 07:03:05;;;;;;;36.43;31.10;;;11.40;38.30;;;;;;5095783;28;20271;-47
2022/03/26 07:05:31;;;;;;;37.37;31.50;;;11.70;38.20;;;;;;5095125;28;20199;-47
2022/03/26 07:07:57;;;;;;;35.10;28.90;;;11.90;38.10;;;;;;5096066;28;20267;-47
2022/03/26 07:10:23;;;;;;;35.10;29.73;;;12.10;38.00;;;;;;5095479;28;20181;-47
2022/03/26 07:12:49;;;;;;;35.07;28.73;;;12.40;37.70;;;;;;5094460;28;20415;-47
2022/03/26 07:15:15;;;;;;;32.80;28.93;;;12.70;37.50;;;;;;5095111;28;20444;-47
2022/03/26 07:17:43;;;;;;;39.40;30.23;;;12.90;37.10;;;;;;5095963;28;20464;-47
2022/03/26 07:20:09;;;;;;;33.00;29.37;;;13.20;36.80;;;;;;5092732;28;20678;-47
2022/03/26 07:22:35;;;;;;;31.77;28.10;;;13.40;36.50;;;;;;5094698;28;20409;-45
2022/03/26 07:25:02;;;;;;;34.97;28.83;;;13.50;36.10;;;;;;5092977;28;20497;-45
2022/03/26 07:27:34;;;;;;;31.63;28.03;;;13.70;36.00;;;;;;5093584;28;20259;-45
2022/03/26 07:30:00;;;;;;;37.63;30.13;;;13.90;35.80;;;;;;5093855;28;20437;-45
2022/03/26 07:32:26;;;;;;;32.83;28.40;;;14.00;35.60;;;;;;5106815;28;20472;-45
2022/03/26 07:34:53;;;;;;;13.33;10.47;;;14.20;35.80;;;;;;5114630;28;20556;-47
2022/03/26 07:37:18;;;;;;;9.90;8.17;;;14.50;39.70;;;;;;5112545;28;20446;-47
2022/03/26 07:39:44;;;;;;;12.83;10.90;;;15.10;44.80;;;;;;5115378;28;20694;-47
2022/03/26 07:42:10;;;;;;;15.40;12.13;;;15.70;45.60;;;;;;5097437;28;20618;-47
2022/03/26 07:44:36;;;;;;;16.90;14.10;;;16.30;44.50;;;;;;5114382;28;20543;-47
2022/03/26 07:47:02;;;;;;;13.60;12.20;;;16.90;43.20;;;;;;5112895;28;20421;-47
2022/03/26 07:49:28;;;;;;;17.63;15.30;;;17.40;42.10;;;;;;5113860;28;20184;-48
2022/03/26 07:51:53;;;;;;;20.40;15.23;;;17.80;41.20;;;;;;5115248;28;20445;-40
2022/03/26 07:54:19;;;;;;;22.20;19.30;;;18.30;40.60;;;;;;5114053;28;20525;-38
2022/03/26 07:56:44;;;;;;;25.53;22.27;;;18.60;39.20;;;;;;5110401;28;20176;-40
2022/03/26 07:59:10;;;;;;;26.30;22.97;;;18.80;37.40;;;;;;5100321;28;20180;-38
2022/03/26 08:01:37;;;;;;;30.30;25.40;;;18.90;35.80;;;;;;5099193;28;20213;-40
2022/03/26 08:04:02;;;;;;;30.63;27.40;;;19.00;34.50;;;;;;5099236;28;20243;-39
2022/03/26 08:06:28;;;;;;;29.07;25.73;;;19.00;33.50;;;;;;5097693;28;20589;-39
2022/03/26 08:08:55;;;;;;;31.07;27.80;;;19.10;33.00;;;;;;5101711;28;20177;-40
2022/03/26 08:11:21;;;;;;;31.57;27.60;;;19.20;32.60;;;;;;5096951;28;20269;-40
2022/03/26 08:13:46;;;;;;;32.50;29.10;;;19.30;32.40;;;;;;5096837;28;20626;-38
2022/03/26 08:16:12;;;;;;;32.97;28.80;;;19.50;32.30;;;;;;5095464;28;20522;-40
2022/03/26 08:18:38;;;;;;;29.83;26.53;;;19.70;31.90;;;;;;5097360;28;20818;-40
2022/03/26 08:21:04;;;;;;;32.23;28.20;;;19.90;31.40;;;;;;5096292;28;20188;-41
2022/03/26 08:23:30;;;;;;;33.17;27.63;;;20.20;31.00;;;;;;5097147;28;20479;-39
2022/03/26 08:28:40;;;;;;;32.07;28.57;;;20.60;29.80;;;;;;5095289;28;20182;-39
2022/03/26 08:31:10;;;;;;;31.17;27.77;;;20.80;29.50;;;;;;5104687;28;20456;-39
2022/03/26 08:33:36;;;;;;;32.13;28.07;;;21.10;29.30;;;;;;5115160;28;20297;-40
2022/03/26 08:36:02;;;;;;;31.57;28.17;;;21.30;29.00;;;;;;5115604;28;20826;-39
2022/03/26 08:38:28;;;;;;;33.27;29.67;;;21.60;28.60;;;;;;5113378;28;20790;-39
2022/03/26 08:40:54;;;;;;;34.10;30.40;;;21.80;28.30;;;;;;5114817;28;20511;-40
2022/03/26 08:43:20;;;;;;;34.13;29.40;;;22.10;28.30;;;;;;5115616;28;20184;-40
2022/03/26 08:45:45;;;;;;;32.77;29.13;;;22.40;28.40;;;;;;5118527;28;20518;-41
2022/03/26 08:48:11;;;;;;;35.43;31.63;;;22.70;28.00;;;;;;5115717;28;20579;-39
2022/03/26 08:50:37;;;;;;;34.23;30.53;;;22.90;27.30;;;;;;5115219;28;20181;-39
2022/03/26 08:53:02;;;;;;;34.53;30.83;;;23.10;27.20;;;;;;5114006;28;20220;-39
2022/03/26 08:55:28;;;;;;;33.20;29.10;;;23.40;27.60;;;;;;5116884;28;20263;-38
2022/03/26 08:57:54;;;;;;;33.57;30.00;;;23.80;27.30;;;;;;5116311;28;20182;-41
2022/03/26 09:00:20;;;;;;;33.27;29.80;;;24.10;27.20;;;;;;5116273;28;20196;-42
2022/03/26 09:02:46;;;;;;;30.60;27.40;;;24.30;27.00;;;;;;5116391;28;20180;-40
2022/03/26 09:05:15;;;;;;;31.87;28.53;;;24.70;27.00;;;;;;5115228;28;20519;-41
2022/03/26 09:07:41;;;;;;;37.00;32.97;;;25.00;26.80;;;;;;5115970;28;20428;-39
2022/03/26 09:10:07;;;;;;;34.57;30.97;;;25.10;26.20;;;;;;5115106;28;20419;-38
2022/03/26 09:12:33;;;;;;;34.43;31.10;;;25.30;26.10;;;;;;5111735;28;20822;-41
2022/03/26 09:14:59;;;;;;;34.67;30.87;;;25.60;25.80;;;;;;5113858;27;20517;-39
2022/03/26 09:17:26;;;;;;;36.03;32.33;;;25.90;25.80;;;;;;5112572;28;20531;-39
2022/03/26 09:19:52;;;;;;;34.83;31.47;;;26.20;25.60;;;;;;5104838;28;20523;-39
2022/03/26 09:22:18;;;;;;;34.40;31.00;;;26.50;25.40;;;;;;5097003;28;20429;-39
2022/03/26 09:24:44;;;;;;;34.10;30.70;;;26.80;25.30;;;;;;5102054;28;20427;-37
2022/03/26 09:27:10;;;;;;;34.03;30.50;;;27.10;25.10;;;;;;5115073;28;20448;-39
2022/03/26 09:29:36;;;;;;;37.03;33.43;;;27.50;25.20;;;;;;5114901;28;20181;-40
2022/03/26 09:32:02;;;;;;;35.40;31.97;;;27.80;24.80;;;;;;5114316;28;20674;-38
2022/03/26 09:34:28;;;;;;;34.17;30.70;;;28.00;24.60;;;;;;5114597;28;20484;-38
2022/03/26 09:36:53;;;;;;;36.47;32.67;;;28.10;24.30;;;;;;5110999;28;20955;-38
2022/03/26 09:39:20;;;;;;;35.43;31.90;;;28.40;24.30;;;;;;5116253;28;20541;-41
2022/03/26 09:41:47;;;;;;;36.07;32.50;;;28.70;24.10;;;;;;5113757;27;20454;-40
2022/03/26 09:44:12;;;;;;;34.23;30.77;;;29.00;24.00;;;;;;5116620;28;20474;-41
2022/03/26 09:46:38;;;;;;;32.73;29.73;;;29.30;23.90;;;;;;5115937;28;20462;-38
2022/03/26 09:49:04;;;;;;;35.97;32.50;;;29.60;23.90;;;;;;5116394;28;20366;-39
2022/03/26 09:51:30;;;;;;;34.80;31.60;;;30.00;23.80;;;;;;5114356;28;20567;-38
2022/03/26 09:53:56;;;;;;;36.50;33.00;;;30.30;23.60;;;;;;5113887;28;20354;-39
2022/03/26 09:56:23;;;;;;;35.33;32.00;;;30.70;23.50;;;;;;5112787;28;20178;-39
2022/03/26 09:58:52;;;;;;;37.70;34.20;;;31.00;23.20;;;;;;5113850;28;20388;-40
2022/03/26 10:01:18;;;;;;;37.27;33.50;;;31.10;22.70;;;;;;5113365;27;20392;-39
2022/03/26 10:04:06;;;;;;;38.40;34.60;;;31.20;22.40;;;;;;5116010;28;20754;-38
2022/03/26 10:06:31;;;;;;;36.77;33.30;;;31.30;22.30;;;;;;5114654;28;20417;-39
2022/03/26 10:08:57;;;;;;;37.80;33.77;;;31.50;22.50;;;;;;5113564;28;20504;-38
2022/03/26 10:11:23;;;;;;;35.70;32.30;;;31.90;22.60;;;;;;5111167;28;20230;-38
2022/03/26 10:13:48;;;;;;;36.00;32.07;;;32.20;22.40;;;;;;5113424;28;20651;-39
2022/03/26 10:16:18;;;;;;;37.40;33.90;;;32.50;22.40;;;;;;5111677;28;20199;-40
2022/03/26 10:18:45;;;;;;;35.33;32.23;;;32.70;22.00;;;;;;5112292;28;20193;-39
2022/03/26 10:21:13;;;;;;;39.60;36.00;;;32.80;21.70;;;;;;5113496;28;20502;-39
2022/03/26 10:23:47;;;;;;;37.10;33.70;;;32.80;21.40;;;;;;5115049;28;20475;-38
2022/03/26 10:26:15;;;;;;;40.20;35.87;;;32.90;21.60;;;;;;5114263;28;20426;-37
2022/03/26 10:28:42;;;;;;;36.13;32.83;;;33.20;21.70;;;;;;5111467;28;20749;-40
2022/03/26 10:34:01;;;;;;;35.13;31.70;;;33.90;21.80;;;;;;5110593;28;20446;-40
2022/03/26 10:36:27;;;;;;;34.63;31.67;;;34.30;21.50;;;;;;5110553;28;20448;-37
2022/03/26 10:38:53;;;;;;;34.80;31.50;;;34.50;21.50;;;;;;5113493;28;20436;-39
2022/03/26 10:41:22;;;;;;;37.07;33.67;;;34.80;21.50;;;;;;5113352;28;20218;-40
2022/03/26 10:43:49;;;;;;;34.67;31.37;;;35.20;21.40;;;;;;5114632;28;20399;-39
2022/03/26 10:46:23;;;;;;;35.80;32.40;;;35.50;21.40;;;;;;5113007;28;20418;-41
2022/03/26 10:49:01;;;;;;;33.53;30.30;;;35.70;21.30;;;;;;5103590;27;20424;-39
2022/03/26 10:51:26;;;;;;;34.60;31.57;;;36.10;21.20;;;;;;5106035;28;20414;-39
2022/03/26 10:53:54;;;;;;;34.90;31.50;;;36.30;21.10;;;;;;5111638;28;20465;-39
2022/03/26 10:56:20;;;;;;;33.23;30.43;;;36.40;21.00;;;;;;5107208;28;20196;-39
2022/03/26 10:58:46;;;;;;;33.83;30.93;;;36.70;20.80;;;;;;5105502;28;20989;-42
2022/03/26 11:01:15;;;;;;;34.60;31.57;;;36.80;20.60;;;;;;5105094;28;20388;-39
2022/03/26 11:03:41;;;;;;;31.33;28.50;;;37.00;20.50;;;;;;5101353;28;20679;-41
2022/03/26 11:06:09;;;;;;;27.93;25.50;;;37.30;20.50;;;;;;5106841;28;20427;-41
2022/03/26 11:08:36;;;;;;;20.07;18.10;;;37.50;21.40;;;;;;5113303;28;20525;-41
2022/03/26 11:11:12;;;;;;;25.73;23.00;;;37.40;22.40;;;;;;5113411;28;20514;-45
2022/03/26 11:13:49;;;;;;;21.73;19.90;;;37.30;21.60;;;;;;5113222;28;20469;-41
2022/03/26 11:17:00;;;;;;;27.93;25.30;;;37.00;22.20;;;;;;5112035;28;20412;-41
2022/03/26 11:19:51;;;;;;;25.40;23.03;;;36.80;22.00;;;;;;5113363;28;20432;-42
2022/03/26 11:22:55;;;;;;;21.80;19.77;;;36.60;22.10;;;;;;5110841;28;20454;-42
2022/03/26 11:26:03;;;;;;;23.67;21.60;;;36.60;22.40;;;;;;5112890;28;20410;-41
2022/03/26 11:28:47;;;;;;;23.00;21.03;;;36.70;22.30;;;;;;5099534;28;20525;-43
2022/03/26 11:31:45;;;;;;;25.80;23.30;;;36.90;22.50;;;;;;5112928;28;20411;-42
2022/03/26 11:34:11;;;;;;;22.23;20.07;;;36.90;21.90;;;;;;5102508;28;20471;-40
2022/03/26 11:36:37;;;;;;;22.90;21.10;;;36.90;22.50;;;;;;5110181;28;20440;-41
2022/03/26 11:39:14;;;;;;;22.30;20.17;;;37.10;22.60;;;;;;5111909;28;20425;-43
2022/03/26 11:41:41;;;;;;;25.03;22.93;;;37.20;22.50;;;;;;5114600;28;20194;-41
2022/03/26 11:44:07;;;;;;;21.87;20.00;;;37.50;22.20;;;;;;5110579;28;20605;-40
2022/03/26 11:52:18;;;;;;;21.30;19.50;;;38.10;22.20;;;;;;5114151;28;20419;-42
2022/03/26 11:54:46;;;;;;;23.90;21.80;;;38.30;22.10;;;;;;5112728;28;20986;-42
2022/03/26 11:57:17;;;;;;;21.53;19.83;;;38.50;21.70;;;;;;5114959;28;20385;-43
2022/03/26 11:59:52;;;;;;;22.13;19.93;;;38.50;21.70;;;;;;5112936;28;20409;-42
2022/03/26 12:02:26;;;;;;;23.40;21.50;;;38.50;21.90;;;;;;5114119;28;20447;-42
2022/03/26 12:08:38;;;;;;;23.50;21.60;;;38.70;21.40;;;;;;5115706;28;20551;-41
2022/03/26 12:11:04;;;;;;;21.57;19.67;;;38.90;21.50;;;;;;5079741;28;20424;-43
2022/03/26 12:13:34;;;;;;;23.57;21.67;;;38.90;21.20;;;;;;5096082;28;20573;-39
2022/03/26 12:16:04;;;;;;;23.93;22.03;;;39.00;21.10;;;;;;5096748;28;20507;-41
2022/03/26 12:18:37;;;;;;;22.50;20.50;;;39.00;21.20;;;;;;5093190;28;20440;-41
2022/03/26 12:21:20;;;;;;;20.97;19.27;;;39.00;21.30;;;;;;5096117;28;20497;-42
2022/03/26 12:23:46;;;;;;;21.40;19.50;;;39.00;21.90;;;;;;5096745;28;20432;-41
2022/03/26 12:26:12;;;;;;;24.17;21.83;;;39.00;21.60;;;;;;5097115;28;20793;-45
2022/03/26 12:28:41;;;;;;;25.20;22.93;;;39.10;21.50;;;;;;5096874;28;20655;-43
2022/03/26 12:31:11;;;;;;;23.73;21.57;;;39.30;21.30;;;;;;5096121;28;20424;-40
2022/03/26 12:33:43;;;;;;;24.20;22.23;;;39.30;21.00;;;;;;5096651;28;20683;-42
2022/03/26 12:36:10;;;;;;;24.50;22.30;;;39.30;21.10;;;;;;5096512;28;20468;-43
2022/03/26 12:38:36;;;;;;;22.00;20.20;;;39.30;21.00;;;;;;5094386;28;20436;-44
2022/03/26 12:41:04;;;;;;;24.57;22.50;;;39.30;21.10;;;;;;5096170;28;20415;-41
2022/03/26 12:43:29;;;;;;;24.67;22.50;;;39.20;20.90;;;;;;5094916;28;20229;-42
2022/03/26 12:45:58;;;;;;;23.20;21.27;;;39.20;20.70;;;;;;5096234;28;20734;-41